sensor_id;sensor_type;location;lat;lon;timestamp;P1;durP1;ratioP1;P2;durP2;ratioP2
68225;SDS011;55045;49.410;11.030;2024-03-23T00:55:51;21.35;;;19.67;;
68225;SDS011;55045;49.410;11.030;2024-03-23T00:58:53;24.20;;;21.90;;
68225;SDS011;55045;49.410;11.030;2024-03-23T01:01:55;22.90;;;20.75;;
68225;SDS011;55045;49.410;11.030;2024-03-23T01:04:58;23.70;;;21.75;;
68225;SDS011;55045;49.410;11.030;2024-03-23T01:08:00;22.73;;;20.75;;
68225;SDS011;55045;49.410;11.030;2024-03-23T01:11:04;25.45;;;23.17;;
68225;SDS011;55045;49.410;11.030;2024-03-23T01:14:06;25.27;;;22.95;;
68225;SDS011;55045;49.410;11.030;2024-03-23T01:17:09;23.65;;;21.63;;
68225;SDS011;55045;49.410;11.030;2024-03-23T01:20:12;23.55;;;21.33;;
68225;SDS011;55045;49.410;11.030;2024-03-23T01:23:14;22.83;;;20.75;;
68225;SDS011;55045;49.410;11.030;2024-03-23T01:26:19;24.95;;;22.65;;
68225;SDS011;55045;49.410;11.030;2024-03-23T01:29:20;23.13;;;20.73;;
68225;SDS011;55045;49.410;11.030;2024-03-23T01:32:23;24.67;;;22.30;;
68225;SDS011;55045;49.410;11.030;2024-03-23T01:35:24;23.35;;;21.05;;
68225;SDS011;55045;49.410;11.030;2024-03-23T01:38:28;24.35;;;21.98;;
68225;SDS011;55045;49.410;11.030;2024-03-23T01:41:31;23.17;;;21.15;;
68225;SDS011;55045;49.410;11.030;2024-03-23T01:44:33;23.23;;;21.10;;
68225;SDS011;55045;49.410;11.030;2024-03-23T01:47:35;21.65;;;19.70;;
68225;SDS011;55045;49.410;11.030;2024-03-23T01:50:38;22.67;;;20.77;;
68225;SDS011;55045;49.410;11.030;2024-03-23T01:53:41;23.10;;;21.10;;
68225;SDS011;55045;49.410;11.030;2024-03-23T01:56:44;20.92;;;19.25;;
68225;SDS011;55045;49.410;11.030;2024-03-23T01:59:47;22.27;;;20.42;;
68225;SDS011;55045;49.410;11.030;2024-03-23T02:02:57;23.35;;;21.10;;
68225;SDS011;55045;49.410;11.030;2024-03-23T02:06:00;23.08;;;21.05;;
68225;SDS011;55045;49.410;11.030;2024-03-23T02:09:03;22.42;;;20.42;;
68225;SDS011;55045;49.410;11.030;2024-03-23T02:12:08;23.50;;;21.50;;
68225;SDS011;55045;49.410;11.030;2024-03-23T02:15:11;23.45;;;21.25;;
68225;SDS011;55045;49.410;11.030;2024-03-23T02:18:13;22.88;;;20.77;;
68225;SDS011;55045;49.410;11.030;2024-03-23T02:21:15;22.58;;;20.42;;
68225;SDS011;55045;49.410;11.030;2024-03-23T02:24:21;22.63;;;20.58;;
68225;SDS011;55045;49.410;11.030;2024-03-23T02:27:24;20.77;;;19.13;;
68225;SDS011;55045;49.410;11.030;2024-03-23T02:30:27;20.55;;;18.73;;
68225;SDS011;55045;49.410;11.030;2024-03-23T02:33:30;23.25;;;20.98;;
68225;SDS011;55045;49.410;11.030;2024-03-23T02:36:33;22.65;;;20.73;;
68225;SDS011;55045;49.410;11.030;2024-03-23T02:39:37;21.40;;;19.67;;
68225;SDS011;55045;49.410;11.030;2024-03-23T02:42:39;20.77;;;18.98;;
68225;SDS011;55045;49.410;11.030;2024-03-23T02:45:42;21.65;;;19.70;;
68225;SDS011;55045;49.410;11.030;2024-03-23T02:48:44;22.05;;;19.90;;
68225;SDS011;55045;49.410;11.030;2024-03-23T02:51:47;22.42;;;20.33;;
68225;SDS011;55045;49.410;11.030;2024-03-23T02:54:51;22.05;;;20.15;;
68225;SDS011;55045;49.410;11.030;2024-03-23T02:57:54;21.33;;;19.30;;
68225;SDS011;55045;49.410;11.030;2024-03-23T03:00:57;20.98;;;19.08;;
68225;SDS011;55045;49.410;11.030;2024-03-23T03:04:00;20.83;;;19.13;;
68225;SDS011;55045;49.410;11.030;2024-03-23T03:07:02;21.65;;;19.55;;
68225;SDS011;55045;49.410;11.030;2024-03-23T03:10:07;20.95;;;19.25;;
68225;SDS011;55045;49.410;11.030;2024-03-23T03:13:12;21.08;;;19.27;;
68225;SDS011;55045;49.410;11.030;2024-03-23T03:16:14;19.95;;;18.25;;
68225;SDS011;55045;49.410;11.030;2024-03-23T03:19:16;20.98;;;19.08;;
68225;SDS011;55045;49.410;11.030;2024-03-23T03:22:19;21.30;;;19.40;;
68225;SDS011;55045;49.410;11.030;2024-03-23T03:25:25;19.17;;;17.33;;
68225;SDS011;55045;49.410;11.030;2024-03-23T03:28:27;19.00;;;17.15;;
68225;SDS011;55045;49.410;11.030;2024-03-23T03:31:31;19.08;;;17.40;;
68225;SDS011;55045;49.410;11.030;2024-03-23T03:34:34;19.55;;;17.80;;
68225;SDS011;55045;49.410;11.030;2024-03-23T03:37:36;20.45;;;18.55;;
68225;SDS011;55045;49.410;11.030;2024-03-23T03:40:40;19.08;;;17.45;;
68225;SDS011;55045;49.410;11.030;2024-03-23T03:43:43;20.70;;;18.90;;
68225;SDS011;55045;49.410;11.030;2024-03-23T03:46:46;20.70;;;18.90;;
68225;SDS011;55045;49.410;11.030;2024-03-23T03:49:47;20.48;;;18.85;;
68225;SDS011;55045;49.410;11.030;2024-03-23T03:52:50;21.13;;;19.42;;
68225;SDS011;55045;49.410;11.030;2024-03-23T03:55:53;20.30;;;18.70;;
68225;SDS011;55045;49.410;11.030;2024-03-23T03:58:56;20.75;;;19.00;;
68225;SDS011;55045;49.410;11.030;2024-03-23T04:01:58;19.90;;;17.60;;
68225;SDS011;55045;49.410;11.030;2024-03-23T04:05:01;19.85;;;18.05;;
68225;SDS011;55045;49.410;11.030;2024-03-23T04:08:04;21.25;;;19.33;;
68225;SDS011;55045;49.410;11.030;2024-03-23T04:11:09;20.00;;;18.08;;
68225;SDS011;55045;49.410;11.030;2024-03-23T04:14:11;21.25;;;19.35;;
68225;SDS011;55045;49.410;11.030;2024-03-23T04:17:14;18.50;;;16.90;;
68225;SDS011;55045;49.410;11.030;2024-03-23T04:20:17;21.35;;;19.45;;
68225;SDS011;55045;49.410;11.030;2024-03-23T04:23:19;19.90;;;18.15;;
68225;SDS011;55045;49.410;11.030;2024-03-23T04:26:25;21.60;;;19.80;;
68225;SDS011;55045;49.410;11.030;2024-03-23T04:29:27;21.15;;;19.35;;
68225;SDS011;55045;49.410;11.030;2024-03-23T04:34:16;22.15;;;20.35;;
68225;SDS011;55045;49.410;11.030;2024-03-23T04:37:18;21.50;;;19.70;;
68225;SDS011;55045;49.410;11.030;2024-03-23T04:40:21;20.75;;;18.90;;
68225;SDS011;55045;49.410;11.030;2024-03-23T04:43:25;21.90;;;19.80;;
68225;SDS011;55045;49.410;11.030;2024-03-23T04:46:28;20.23;;;18.55;;
68225;SDS011;55045;49.410;11.030;2024-03-23T04:49:34;20.85;;;19.15;;
68225;SDS011;55045;49.410;11.030;2024-03-23T04:52:39;19.13;;;17.63;;
68225;SDS011;55045;49.410;11.030;2024-03-23T04:55:44;17.00;;;15.60;;
68225;SDS011;55045;49.410;11.030;2024-03-23T04:58:49;16.50;;;15.00;;
68225;SDS011;55045;49.410;11.030;2024-03-23T05:01:51;18.50;;;16.90;;
68225;SDS011;55045;49.410;11.030;2024-03-23T05:04:55;19.02;;;17.52;;
68225;SDS011;55045;49.410;11.030;2024-03-23T05:07:57;18.48;;;17.08;;
68225;SDS011;55045;49.410;11.030;2024-03-23T05:11:01;17.70;;;16.50;;
68225;SDS011;55045;49.410;11.030;2024-03-23T05:14:02;17.70;;;16.30;;
68225;SDS011;55045;49.410;11.030;2024-03-23T05:17:05;17.67;;;16.25;;
68225;SDS011;55045;49.410;11.030;2024-03-23T05:20:09;18.10;;;16.80;;
68225;SDS011;55045;49.410;11.030;2024-03-23T05:23:13;16.83;;;15.60;;
68225;SDS011;55045;49.410;11.030;2024-03-23T05:26:16;17.25;;;15.85;;
68225;SDS011;55045;49.410;11.030;2024-03-23T05:29:18;17.00;;;15.65;;
68225;SDS011;55045;49.410;11.030;2024-03-23T05:32:22;15.07;;;13.88;;
68225;SDS011;55045;49.410;11.030;2024-03-23T05:35:26;13.63;;;12.48;;
68225;SDS011;55045;49.410;11.030;2024-03-23T05:38:29;13.45;;;12.35;;
68225;SDS011;55045;49.410;11.030;2024-03-23T05:41:33;13.05;;;12.05;;
68225;SDS011;55045;49.410;11.030;2024-03-23T05:44:38;11.18;;;10.10;;
68225;SDS011;55045;49.410;11.030;2024-03-23T05:47:43;12.40;;;11.10;;
68225;SDS011;55045;49.410;11.030;2024-03-23T05:50:47;11.75;;;10.38;;
68225;SDS011;55045;49.410;11.030;2024-03-23T05:53:49;10.90;;;9.95;;
68225;SDS011;55045;49.410;11.030;2024-03-23T05:56:54;10.35;;;9.55;;
68225;SDS011;55045;49.410;11.030;2024-03-23T05:59:56;11.60;;;10.50;;
68225;SDS011;55045;49.410;11.030;2024-03-23T06:03:00;10.88;;;10.07;;
68225;SDS011;55045;49.410;11.030;2024-03-23T06:06:04;10.57;;;9.63;;
68225;SDS011;55045;49.410;11.030;2024-03-23T06:09:13;9.68;;;8.68;;
68225;SDS011;55045;49.410;11.030;2024-03-23T06:12:19;12.77;;;11.77;;
68225;SDS011;55045;49.410;11.030;2024-03-23T06:15:24;14.70;;;13.60;;
68225;SDS011;55045;49.410;11.030;2024-03-23T06:18:29;18.33;;;16.90;;
68225;SDS011;55045;49.410;11.030;2024-03-23T06:21:34;20.80;;;19.10;;
68225;SDS011;55045;49.410;11.030;2024-03-23T06:24:37;22.40;;;20.30;;
68225;SDS011;55045;49.410;11.030;2024-03-23T06:27:40;21.65;;;19.80;;
68225;SDS011;55045;49.410;11.030;2024-03-23T06:30:42;22.40;;;20.50;;
68225;SDS011;55045;49.410;11.030;2024-03-23T06:33:46;23.27;;;21.08;;
68225;SDS011;55045;49.410;11.030;2024-03-23T06:36:49;23.65;;;21.55;;
68225;SDS011;55045;49.410;11.030;2024-03-23T06:39:53;22.58;;;20.58;;
68225;SDS011;55045;49.410;11.030;2024-03-23T06:42:57;23.65;;;21.50;;
68225;SDS011;55045;49.410;11.030;2024-03-23T06:46:01;22.63;;;20.48;;
68225;SDS011;55045;49.410;11.030;2024-03-23T06:49:05;22.50;;;20.42;;
68225;SDS011;55045;49.410;11.030;2024-03-23T06:52:12;23.60;;;21.38;;
68225;SDS011;55045;49.410;11.030;2024-03-23T06:55:16;24.20;;;21.98;;
68225;SDS011;55045;49.410;11.030;2024-03-23T06:58:19;22.60;;;20.70;;
68225;SDS011;55045;49.410;11.030;2024-03-23T07:01:22;23.33;;;21.23;;
68225;SDS011;55045;49.410;11.030;2024-03-23T07:04:25;23.25;;;21.13;;
68225;SDS011;55045;49.410;11.030;2024-03-23T07:07:29;21.95;;;20.05;;
68225;SDS011;55045;49.410;11.030;2024-03-23T07:10:32;22.65;;;20.50;;
68225;SDS011;55045;49.410;11.030;2024-03-23T07:13:34;21.92;;;20.23;;
68225;SDS011;55045;49.410;11.030;2024-03-23T07:16:37;22.90;;;21.05;;
68225;SDS011;55045;49.410;11.030;2024-03-23T07:19:41;21.48;;;19.73;;
68225;SDS011;55045;49.410;11.030;2024-03-23T07:22:46;20.52;;;18.60;;
68225;SDS011;55045;49.410;11.030;2024-03-23T07:25:57;19.92;;;18.42;;
68225;SDS011;55045;49.410;11.030;2024-03-23T07:29:00;21.55;;;19.55;;
68225;SDS011;55045;49.410;11.030;2024-03-23T07:32:03;19.75;;;18.25;;
68225;SDS011;55045;49.410;11.030;2024-03-23T07:35:06;21.55;;;19.75;;
68225;SDS011;55045;49.410;11.030;2024-03-23T07:38:15;19.95;;;18.35;;
68225;SDS011;55045;49.410;11.030;2024-03-23T07:41:21;20.90;;;19.20;;
68225;SDS011;55045;49.410;11.030;2024-03-23T07:44:30;20.00;;;18.30;;
68225;SDS011;55045;49.410;11.030;2024-03-23T07:47:34;19.85;;;18.17;;
68225;SDS011;55045;49.410;11.030;2024-03-23T07:50:37;19.35;;;17.60;;
68225;SDS011;55045;49.410;11.030;2024-03-23T07:53:42;19.52;;;17.83;;
68225;SDS011;55045;49.410;11.030;2024-03-23T07:56:45;19.45;;;17.77;;
68225;SDS011;55045;49.410;11.030;2024-03-23T07:59:48;19.15;;;17.58;;
68225;SDS011;55045;49.410;11.030;2024-03-23T08:02:51;19.48;;;17.83;;
68225;SDS011;55045;49.410;11.030;2024-03-23T08:05:53;17.70;;;16.20;;
68225;SDS011;55045;49.410;11.030;2024-03-23T08:08:58;18.85;;;17.25;;
68225;SDS011;55045;49.410;11.030;2024-03-23T08:12:03;17.30;;;15.80;;
68225;SDS011;55045;49.410;11.030;2024-03-23T08:15:06;17.58;;;16.23;;
68225;SDS011;55045;49.410;11.030;2024-03-23T08:18:09;18.00;;;16.50;;
68225;SDS011;55045;49.410;11.030;2024-03-23T08:21:12;23.30;;;20.70;;
68225;SDS011;55045;49.410;11.030;2024-03-23T08:24:16;21.55;;;19.75;;
68225;SDS011;55045;49.410;11.030;2024-03-23T08:27:18;19.65;;;17.98;;
68225;SDS011;55045;49.410;11.030;2024-03-23T08:30:21;19.17;;;17.65;;
68225;SDS011;55045;49.410;11.030;2024-03-23T08:33:23;18.75;;;17.30;;
68225;SDS011;55045;49.410;11.030;2024-03-23T08:36:26;17.33;;;16.05;;
68225;SDS011;55045;49.410;11.030;2024-03-23T08:39:31;17.48;;;16.17;;
68225;SDS011;55045;49.410;11.030;2024-03-23T08:42:34;15.70;;;14.60;;
68225;SDS011;55045;49.410;11.030;2024-03-23T08:45:37;15.70;;;14.70;;
68225;SDS011;55045;49.410;11.030;2024-03-23T08:48:47;14.82;;;13.93;;
68225;SDS011;55045;49.410;11.030;2024-03-23T08:51:50;14.90;;;14.00;;
68225;SDS011;55045;49.410;11.030;2024-03-23T08:54:54;14.80;;;13.80;;
68225;SDS011;55045;49.410;11.030;2024-03-23T08:57:58;13.98;;;13.27;;
68225;SDS011;55045;49.410;11.030;2024-03-23T09:01:03;13.80;;;13.10;;
68225;SDS011;55045;49.410;11.030;2024-03-23T09:04:07;14.60;;;13.70;;
68225;SDS011;55045;49.410;11.030;2024-03-23T09:07:09;15.00;;;14.10;;
68225;SDS011;55045;49.410;11.030;2024-03-23T09:10:13;15.50;;;14.50;;
68225;SDS011;55045;49.410;11.030;2024-03-23T09:13:17;14.90;;;14.00;;
68225;SDS011;55045;49.410;11.030;2024-03-23T09:16:20;14.65;;;13.85;;
68225;SDS011;55045;49.410;11.030;2024-03-23T09:19:22;12.85;;;12.25;;
68225;SDS011;55045;49.410;11.030;2024-03-23T09:22:25;12.80;;;12.20;;
68225;SDS011;55045;49.410;11.030;2024-03-23T09:25:30;12.23;;;11.63;;
68225;SDS011;55045;49.410;11.030;2024-03-23T09:28:33;10.02;;;9.60;;
68225;SDS011;55045;49.410;11.030;2024-03-23T09:31:35;10.65;;;10.15;;
68225;SDS011;55045;49.410;11.030;2024-03-23T09:34:40;7.47;;;6.80;;
68225;SDS011;55045;49.410;11.030;2024-03-23T09:37:42;8.30;;;7.90;;
68225;SDS011;55045;49.410;11.030;2024-03-23T09:40:50;7.40;;;7.10;;
68225;SDS011;55045;49.410;11.030;2024-03-23T09:43:56;7.18;;;6.88;;
68225;SDS011;55045;49.410;11.030;2024-03-23T09:46:58;7.63;;;7.32;;
68225;SDS011;55045;49.410;11.030;2024-03-23T09:50:05;6.03;;;5.82;;
68225;SDS011;55045;49.410;11.030;2024-03-23T09:53:13;4.57;;;4.28;;
68225;SDS011;55045;49.410;11.030;2024-03-23T09:56:18;5.18;;;4.97;;
68225;SDS011;55045;49.410;11.030;2024-03-23T09:59:20;3.60;;;3.50;;
68225;SDS011;55045;49.410;11.030;2024-03-23T10:02:24;3.20;;;3.10;;
68225;SDS011;55045;49.410;11.030;2024-03-23T10:05:27;2.70;;;2.50;;
68225;SDS011;55045;49.410;11.030;2024-03-23T10:08:31;2.50;;;2.40;;
68225;SDS011;55045;49.410;11.030;2024-03-23T10:11:37;2.53;;;2.42;;
68225;SDS011;55045;49.410;11.030;2024-03-23T10:14:44;3.10;;;3.00;;
68225;SDS011;55045;49.410;11.030;2024-03-23T10:17:48;3.50;;;3.30;;
68225;SDS011;55045;49.410;11.030;2024-03-23T10:20:52;3.40;;;3.20;;
68225;SDS011;55045;49.410;11.030;2024-03-23T10:24:07;5.97;;;3.92;;
68225;SDS011;55045;49.410;11.030;2024-03-23T10:27:14;2.63;;;2.53;;
68225;SDS011;55045;49.410;11.030;2024-03-23T10:34:18;6.90;;;6.60;;
68225;SDS011;55045;49.410;11.030;2024-03-23T10:37:29;10.05;;;9.65;;
68225;SDS011;55045;49.410;11.030;2024-03-23T10:40:36;8.40;;;8.00;;
68225;SDS011;55045;49.410;11.030;2024-03-23T10:43:39;7.18;;;6.68;;
68225;SDS011;55045;49.410;11.030;2024-03-23T10:46:43;11.88;;;11.00;;
68225;SDS011;55045;49.410;11.030;2024-03-23T10:49:46;7.03;;;6.40;;
68225;SDS011;55045;49.410;11.030;2024-03-23T10:52:49;6.40;;;6.00;;
68225;SDS011;55045;49.410;11.030;2024-03-23T10:55:57;8.00;;;7.60;;
68225;SDS011;55045;49.410;11.030;2024-03-23T10:59:01;6.63;;;6.22;;
68225;SDS011;55045;49.410;11.030;2024-03-23T11:02:07;4.35;;;4.05;;
68225;SDS011;55045;49.410;11.030;2024-03-23T11:05:31;3.83;;;3.58;;
68225;SDS011;55045;49.410;11.030;2024-03-23T11:08:34;3.97;;;3.58;;
68225;SDS011;55045;49.410;11.030;2024-03-23T11:11:37;3.55;;;3.22;;
68225;SDS011;55045;49.410;11.030;2024-03-23T11:14:39;3.85;;;3.50;;
68225;SDS011;55045;49.410;11.030;2024-03-23T11:17:42;3.60;;;3.22;;
68225;SDS011;55045;49.410;11.030;2024-03-23T11:21:08;3.20;;;2.90;;
68225;SDS011;55045;49.410;11.030;2024-03-23T11:24:13;7.80;;;2.95;;
68225;SDS011;55045;49.410;11.030;2024-03-23T11:27:17;4.45;;;3.53;;
68225;SDS011;55045;49.410;11.030;2024-03-23T11:30:21;4.00;;;3.03;;
68225;SDS011;55045;49.410;11.030;2024-03-23T11:33:25;2.75;;;2.55;;
68225;SDS011;55045;49.410;11.030;2024-03-23T11:36:28;3.97;;;2.75;;
68225;SDS011;55045;49.410;11.030;2024-03-23T11:39:31;4.65;;;2.78;;
68225;SDS011;55045;49.410;11.030;2024-03-23T11:42:32;5.38;;;2.92;;
68225;SDS011;55045;49.410;11.030;2024-03-23T11:45:36;4.53;;;2.80;;
68225;SDS011;55045;49.410;11.030;2024-03-23T11:48:39;3.72;;;2.78;;
68225;SDS011;55045;49.410;11.030;2024-03-23T11:51:43;5.82;;;3.45;;
68225;SDS011;55045;49.410;11.030;2024-03-23T11:54:45;5.30;;;2.88;;
68225;SDS011;55045;49.410;11.030;2024-03-23T11:57:50;3.83;;;2.72;;
68225;SDS011;55045;49.410;11.030;2024-03-23T12:00:52;5.57;;;2.80;;
68225;SDS011;55045;49.410;11.030;2024-03-23T12:03:58;6.10;;;2.80;;
68225;SDS011;55045;49.410;11.030;2024-03-23T12:07:15;3.33;;;2.80;;
68225;SDS011;55045;49.410;11.030;2024-03-23T12:10:20;3.58;;;2.42;;
68225;SDS011;55045;49.410;11.030;2024-03-23T12:13:22;4.38;;;2.42;;
68225;SDS011;55045;49.410;11.030;2024-03-23T12:20:04;4.13;;;2.33;;
68225;SDS011;55045;49.410;11.030;2024-03-23T12:23:10;4.63;;;2.47;;
68225;SDS011;55045;49.410;11.030;2024-03-23T12:26:15;6.97;;;2.45;;
68225;SDS011;55045;49.410;11.030;2024-03-23T12:29:19;5.18;;;2.70;;
68225;SDS011;55045;49.410;11.030;2024-03-23T12:32:21;7.18;;;2.83;;
68225;SDS011;55045;49.410;11.030;2024-03-23T12:35:26;5.28;;;2.40;;
68225;SDS011;55045;49.410;11.030;2024-03-23T12:38:30;5.95;;;2.60;;
68225;SDS011;55045;49.410;11.030;2024-03-23T12:41:32;6.60;;;2.97;;
68225;SDS011;55045;49.410;11.030;2024-03-23T12:44:34;6.70;;;2.92;;
68225;SDS011;55045;49.410;11.030;2024-03-23T12:47:37;6.18;;;2.85;;
68225;SDS011;55045;49.410;11.030;2024-03-23T12:50:40;3.95;;;2.80;;
68225;SDS011;55045;49.410;11.030;2024-03-23T12:53:43;3.25;;;2.75;;
68225;SDS011;55045;49.410;11.030;2024-03-23T12:56:46;6.65;;;2.90;;
68225;SDS011;55045;49.410;11.030;2024-03-23T12:59:50;4.57;;;2.45;;
68225;SDS011;55045;49.410;11.030;2024-03-23T13:02:54;3.47;;;2.60;;
68225;SDS011;55045;49.410;11.030;2024-03-23T13:05:57;5.63;;;2.80;;
68225;SDS011;55045;49.410;11.030;2024-03-23T13:09:00;5.68;;;3.05;;
68225;SDS011;55045;49.410;11.030;2024-03-23T13:12:05;4.78;;;3.30;;
68225;SDS011;55045;49.410;11.030;2024-03-23T13:15:08;4.85;;;2.90;;
68225;SDS011;55045;49.410;11.030;2024-03-23T13:18:11;3.33;;;2.83;;
68225;SDS011;55045;49.410;11.030;2024-03-23T13:21:13;4.72;;;3.20;;
68225;SDS011;55045;49.410;11.030;2024-03-23T13:24:17;7.63;;;3.03;;
68225;SDS011;55045;49.410;11.030;2024-03-23T13:27:18;6.65;;;3.60;;
68225;SDS011;55045;49.410;11.030;2024-03-23T13:30:21;5.55;;;2.80;;
68225;SDS011;55045;49.410;11.030;2024-03-23T13:33:23;6.25;;;2.75;;
68225;SDS011;55045;49.410;11.030;2024-03-23T13:36:26;6.10;;;2.45;;
68225;SDS011;55045;49.410;11.030;2024-03-23T13:39:30;6.05;;;2.80;;
68225;SDS011;55045;49.410;11.030;2024-03-23T13:42:32;8.90;;;2.85;;
68225;SDS011;55045;49.410;11.030;2024-03-23T13:45:34;5.85;;;3.03;;
68225;SDS011;55045;49.410;11.030;2024-03-23T13:48:38;5.85;;;2.90;;
68225;SDS011;55045;49.410;11.030;2024-03-23T13:51:40;7.07;;;2.63;;
68225;SDS011;55045;49.410;11.030;2024-03-23T13:54:44;5.35;;;2.83;;
68225;SDS011;55045;49.410;11.030;2024-03-23T13:57:47;5.68;;;2.50;;
68225;SDS011;55045;49.410;11.030;2024-03-23T14:00:52;5.47;;;2.50;;
68225;SDS011;55045;49.410;11.030;2024-03-23T14:03:55;5.50;;;2.65;;
68225;SDS011;55045;49.410;11.030;2024-03-23T14:06:59;5.20;;;2.85;;
68225;SDS011;55045;49.410;11.030;2024-03-23T14:10:03;5.07;;;2.47;;
68225;SDS011;55045;49.410;11.030;2024-03-23T14:13:07;6.45;;;2.80;;
68225;SDS011;55045;49.410;11.030;2024-03-23T14:16:10;5.63;;;2.50;;
68225;SDS011;55045;49.410;11.030;2024-03-23T14:19:12;5.47;;;2.45;;
68225;SDS011;55045;49.410;11.030;2024-03-23T14:22:15;9.20;;;2.50;;
68225;SDS011;55045;49.410;11.030;2024-03-23T14:25:20;5.65;;;2.53;;
68225;SDS011;55045;49.410;11.030;2024-03-23T14:28:25;4.53;;;2.28;;
68225;SDS011;55045;49.410;11.030;2024-03-23T14:31:29;6.50;;;2.33;;
68225;SDS011;55045;49.410;11.030;2024-03-23T14:34:31;6.35;;;2.60;;
68225;SDS011;55045;49.410;11.030;2024-03-23T14:37:33;5.97;;;2.65;;
68225;SDS011;55045;49.410;11.030;2024-03-23T14:40:43;5.07;;;2.33;;
68225;SDS011;55045;49.410;11.030;2024-03-23T14:44:08;7.65;;;2.53;;
68225;SDS011;55045;49.410;11.030;2024-03-23T14:47:10;5.53;;;2.38;;
68225;SDS011;55045;49.410;11.030;2024-03-23T14:50:12;5.68;;;2.35;;
68225;SDS011;55045;49.410;11.030;2024-03-23T14:53:16;3.97;;;2.10;;
68225;SDS011;55045;49.410;11.030;2024-03-23T14:56:20;6.18;;;2.20;;
68225;SDS011;55045;49.410;11.030;2024-03-23T14:59:22;4.47;;;2.53;;
68225;SDS011;55045;49.410;11.030;2024-03-23T15:02:26;4.88;;;2.33;;
68225;SDS011;55045;49.410;11.030;2024-03-23T15:05:29;5.95;;;2.30;;
68225;SDS011;55045;49.410;11.030;2024-03-23T15:08:32;5.40;;;2.47;;
68225;SDS011;55045;49.410;11.030;2024-03-23T15:11:35;8.88;;;7.30;;
68225;SDS011;55045;49.410;11.030;2024-03-23T15:14:38;17.50;;;16.15;;
68225;SDS011;55045;49.410;11.030;2024-03-23T15:17:41;19.58;;;18.17;;
68225;SDS011;55045;49.410;11.030;2024-03-23T15:20:51;17.20;;;16.10;;
68225;SDS011;55045;49.410;11.030;2024-03-23T15:23:55;16.65;;;15.43;;
68225;SDS011;55045;49.410;11.030;2024-03-23T15:26:59;16.05;;;14.80;;
68225;SDS011;55045;49.410;11.030;2024-03-23T15:30:00;16.40;;;15.30;;
68225;SDS011;55045;49.410;11.030;2024-03-23T15:33:03;16.80;;;15.27;;
68225;SDS011;55045;49.410;11.030;2024-03-23T15:36:05;16.75;;;15.60;;
68225;SDS011;55045;49.410;11.030;2024-03-23T15:39:08;16.38;;;14.93;;
68225;SDS011;55045;49.410;11.030;2024-03-23T15:42:11;15.10;;;13.85;;
68225;SDS011;55045;49.410;11.030;2024-03-23T15:45:14;15.45;;;14.32;;
68225;SDS011;55045;49.410;11.030;2024-03-23T15:48:20;15.70;;;14.48;;
68225;SDS011;55045;49.410;11.030;2024-03-23T15:51:23;13.55;;;12.63;;
68225;SDS011;55045;49.410;11.030;2024-03-23T15:54:32;12.98;;;12.05;;
68225;SDS011;55045;49.410;11.030;2024-03-23T15:57:35;12.57;;;11.68;;
68225;SDS011;55045;49.410;11.030;2024-03-23T16:03:47;11.98;;;11.18;;
68225;SDS011;55045;49.410;11.030;2024-03-23T16:06:52;10.55;;;9.77;;
68225;SDS011;55045;49.410;11.030;2024-03-23T16:09:53;10.32;;;9.48;;
68225;SDS011;55045;49.410;11.030;2024-03-23T16:12:59;9.55;;;8.65;;
68225;SDS011;55045;49.410;11.030;2024-03-23T16:16:01;10.80;;;10.00;;
68225;SDS011;55045;49.410;11.030;2024-03-23T16:19:07;9.07;;;7.45;;
68225;SDS011;55045;49.410;11.030;2024-03-23T16:22:09;7.85;;;6.60;;
68225;SDS011;55045;49.410;11.030;2024-03-23T16:25:12;6.50;;;5.40;;
68225;SDS011;55045;49.410;11.030;2024-03-23T16:28:16;6.40;;;5.60;;
68225;SDS011;55045;49.410;11.030;2024-03-23T16:34:15;6.38;;;5.65;;
68225;SDS011;55045;49.410;11.030;2024-03-23T16:37:18;5.20;;;4.80;;
68225;SDS011;55045;49.410;11.030;2024-03-23T16:40:23;5.75;;;5.25;;
68225;SDS011;55045;49.410;11.030;2024-03-23T16:43:26;6.00;;;5.45;;
68225;SDS011;55045;49.410;11.030;2024-03-23T16:46:29;6.95;;;6.10;;
68225;SDS011;55045;49.410;11.030;2024-03-23T16:49:33;6.13;;;5.60;;
68225;SDS011;55045;49.410;11.030;2024-03-23T16:52:35;6.63;;;5.95;;
68225;SDS011;55045;49.410;11.030;2024-03-23T16:55:38;6.72;;;4.97;;
68225;SDS011;55045;49.410;11.030;2024-03-23T16:58:40;6.53;;;5.90;;
68225;SDS011;55045;49.410;11.030;2024-03-23T17:01:45;6.63;;;4.55;;
68225;SDS011;55045;49.410;11.030;2024-03-23T17:04:48;6.05;;;5.38;;
68225;SDS011;55045;49.410;11.030;2024-03-23T17:07:51;6.20;;;4.15;;
68225;SDS011;55045;49.410;11.030;2024-03-23T17:10:57;5.65;;;5.22;;
68225;SDS011;55045;49.410;11.030;2024-03-23T17:14:01;5.10;;;4.68;;
68225;SDS011;55045;49.410;11.030;2024-03-23T17:17:03;5.90;;;4.53;;
68225;SDS011;55045;49.410;11.030;2024-03-23T17:20:08;4.07;;;3.60;;
68225;SDS011;55045;49.410;11.030;2024-03-23T17:23:11;6.88;;;5.88;;
68225;SDS011;55045;49.410;11.030;2024-03-23T17:26:14;3.83;;;3.10;;
68225;SDS011;55045;49.410;11.030;2024-03-23T17:29:16;7.70;;;4.80;;
68225;SDS011;55045;49.410;11.030;2024-03-23T17:32:19;4.03;;;3.72;;
68225;SDS011;55045;49.410;11.030;2024-03-23T17:35:23;3.10;;;2.85;;
68225;SDS011;55045;49.410;11.030;2024-03-23T17:38:26;3.35;;;3.05;;
68225;SDS011;55045;49.410;11.030;2024-03-23T17:41:28;5.32;;;4.57;;
68225;SDS011;55045;49.410;11.030;2024-03-23T17:44:31;5.65;;;5.15;;
68225;SDS011;55045;49.410;11.030;2024-03-23T17:47:35;7.18;;;6.47;;
68225;SDS011;55045;49.410;11.030;2024-03-23T17:50:40;5.40;;;4.93;;
68225;SDS011;55045;49.410;11.030;2024-03-23T17:53:42;6.20;;;5.70;;
68225;SDS011;55045;49.410;11.030;2024-03-23T17:56:45;5.00;;;4.60;;
68225;SDS011;55045;49.410;11.030;2024-03-23T17:59:46;7.75;;;7.25;;
68225;SDS011;55045;49.410;11.030;2024-03-23T18:02:49;9.35;;;8.55;;
68225;SDS011;55045;49.410;11.030;2024-03-23T18:05:53;9.13;;;8.23;;
68225;SDS011;55045;49.410;11.030;2024-03-23T18:08:55;12.57;;;11.38;;
68225;SDS011;55045;49.410;11.030;2024-03-23T18:11:57;10.77;;;10.05;;
68225;SDS011;55045;49.410;11.030;2024-03-23T18:14:59;10.75;;;9.95;;
68225;SDS011;55045;49.410;11.030;2024-03-23T18:18:05;16.52;;;15.07;;
68225;SDS011;55045;49.410;11.030;2024-03-23T18:26:39;11.40;;;10.50;;
68225;SDS011;55045;49.410;11.030;2024-03-23T18:29:42;12.60;;;11.40;;
68225;SDS011;55045;49.410;11.030;2024-03-23T18:32:45;13.18;;;12.20;;
68225;SDS011;55045;49.410;11.030;2024-03-23T18:35:48;14.38;;;13.05;;
68225;SDS011;55045;49.410;11.030;2024-03-23T18:38:52;11.82;;;10.90;;
68225;SDS011;55045;49.410;11.030;2024-03-23T18:41:55;11.63;;;10.63;;
68225;SDS011;55045;49.410;11.030;2024-03-23T18:44:57;16.23;;;14.80;;
68225;SDS011;55045;49.410;11.030;2024-03-23T18:48:01;16.58;;;12.40;;
68225;SDS011;55045;49.410;11.030;2024-03-23T18:51:04;15.60;;;14.00;;
68225;SDS011;55045;49.410;11.030;2024-03-23T18:54:06;14.27;;;13.27;;
68225;SDS011;55045;49.410;11.030;2024-03-23T18:57:10;9.55;;;8.77;;
68225;SDS011;55045;49.410;11.030;2024-03-23T19:00:13;10.70;;;9.82;;
68225;SDS011;55045;49.410;11.030;2024-03-23T19:03:16;7.75;;;7.15;;
68225;SDS011;55045;49.410;11.030;2024-03-23T19:06:17;7.50;;;5.90;;
68225;SDS011;55045;49.410;11.030;2024-03-23T19:09:20;4.85;;;4.45;;